Time;durP1;ratioP1;P1;durP2;ratioP2;P2;SDS_P1;SDS_P2;PMS_P1;PMS_P2;Temp;Humidity;BMP_temperature;BMP_pressure;BME280_temperature;BME280_humidity;BME280_pressure;Samples;Min_cycle;Max_cycle;Signal;HPM_P1;HPM_P2
2021/07/31 00:01:01;;;;;;;;;;;20.20;99.90;;;;;;6074919;29;19907;-83
2021/07/31 00:04:01;;;;;;;;;;;20.20;99.90;;;;;;6074898;29;19950;-83
2021/07/31 00:07:02;;;;;;;;;;;20.10;99.90;;;;;;6074346;29;19911;-83
2021/07/31 00:10:02;;;;;;;;;;;20.10;99.90;;;;;;6076268;28;19927;-82
2021/07/31 00:13:03;;;;;;;;;;;20.10;99.90;;;;;;6058682;29;19923;-84
2021/07/31 00:16:04;;;;;;;;;;;20.00;99.90;;;;;;6074894;29;20003;-83
2021/07/31 00:19:04;;;;;;;;;;;19.70;99.90;;;;;;6058868;29;19911;-83
2021/07/31 00:22:05;;;;;;;;;;;19.90;99.90;;;;;;6083332;29;19910;-84
2021/07/31 00:25:06;;;;;;;;;;;20.00;99.90;;;;;;6179467;28;19911;-84
2021/07/31 00:28:07;;;;;;;;;;;20.00;99.90;;;;;;6162765;28;19957;-83
2021/07/31 00:31:08;;;;;;;;;;;19.90;99.90;;;;;;6160190;28;19910;-84
2021/07/31 00:34:08;;;;;;;;;;;19.90;99.90;;;;;;6073786;29;20346;-85
2021/07/31 00:37:09;;;;;;;;;;;20.00;99.90;;;;;;6074389;29;19908;-84
2021/07/31 00:40:09;;;;;;;;;;;19.90;99.90;;;;;;6074209;29;19912;-83
2021/07/31 00:43:10;;;;;;;;;;;19.90;99.90;;;;;;6059682;29;19903;-84
2021/07/31 00:46:10;;;;;;;;;;;19.80;99.90;;;;;;6162673;28;19923;-84
2021/07/31 00:49:11;;;;;;;;;;;19.80;99.90;;;;;;6162910;28;19965;-84
2021/07/31 00:52:11;;;;;;;;;;;19.80;99.90;;;;;;6179800;28;19911;-85
2021/07/31 00:55:15;;;;;;;;;;;19.80;99.90;;;;;;6161045;28;19969;-83
2021/07/31 00:58:16;;;;;;;;;;;19.80;99.90;;;;;;6072789;29;19911;-83
2021/07/31 01:01:16;;;;;;;;;;;19.80;99.90;;;;;;6139625;28;19910;-84
2021/07/31 01:04:17;;;;;;;;;;;19.80;99.90;;;;;;6073576;29;19933;-83
2021/07/31 01:07:17;;;;;;;;;;;19.70;99.90;;;;;;6073438;29;19919;-82
2021/07/31 01:10:18;;;;;;;;;;;19.60;99.90;;;;;;6057896;29;20018;-84
2021/07/31 01:13:18;;;;;;;;;;;19.70;99.90;;;;;;6073352;29;19915;-84
2021/07/31 01:16:19;;;;;;;;;;;19.70;99.90;;;;;;6057787;29;19915;-82
2021/07/31 01:19:19;;;;;;;;;;;19.70;99.90;;;;;;6073530;29;19903;-83
2021/07/31 01:22:20;;;;;;;;;;;19.90;99.90;;;;;;6073615;29;20347;-83
2021/07/31 01:25:20;;;;;;;;;;;19.60;99.90;;;;;;6155715;28;19954;-82
2021/07/31 01:28:21;;;;;;;;;;;19.50;99.90;;;;;;6074243;29;20353;-83
2021/07/31 01:31:21;;;;;;;;;;;19.50;99.90;;;;;;6073162;29;19926;-83
2021/07/31 01:34:22;;;;;;;;;;;19.40;99.90;;;;;;6072830;29;19930;-83
2021/07/31 01:37:22;;;;;;;;;;;19.60;99.90;;;;;;6072652;29;20368;-84
2021/07/31 01:40:23;;;;;;;;;;;19.30;99.90;;;;;;6088312;29;19911;-84
2021/07/31 01:43:23;;;;;;;;;;;19.30;99.90;;;;;;6057431;29;19911;-84
2021/07/31 01:46:24;;;;;;;;;;;19.20;99.90;;;;;;6073336;29;19927;-84
2021/07/31 01:49:24;;;;;;;;;;;19.20;99.90;;;;;;6138142;28;19958;-83
2021/07/31 01:52:25;;;;;;;;;;;19.10;99.90;;;;;;6072410;28;19957;-83
2021/07/31 01:55:25;;;;;;;;;;;19.10;99.90;;;;;;6056892;29;19945;-83
2021/07/31 01:58:26;;;;;;;;;;;19.10;99.90;;;;;;6068850;28;19914;-83
2021/07/31 02:01:26;;;;;;;;;;;19.00;99.90;;;;;;6057589;28;20029;-82
2021/07/31 02:04:27;;;;;;;;;;;19.00;99.90;;;;;;6159964;28;19908;-83
2021/07/31 02:07:27;;;;;;;;;;;19.00;99.90;;;;;;6072593;29;19911;-82
2021/07/31 02:10:28;;;;;;;;;;;19.00;99.90;;;;;;6072070;29;19927;-84
2021/07/31 02:13:28;;;;;;;;;;;18.90;99.90;;;;;;6095223;29;19965;-83
2021/07/31 02:16:29;;;;;;;;;;;18.90;99.90;;;;;;6176788;28;19903;-83
2021/07/31 02:19:30;;;;;;;;;;;18.80;99.90;;;;;;6072487;29;19961;-83
2021/07/31 02:22:30;;;;;;;;;;;18.80;99.90;;;;;;6056989;29;19908;-84
2021/07/31 02:25:31;;;;;;;;;;;18.90;99.90;;;;;;6073409;29;19918;-83
2021/07/31 02:28:31;;;;;;;;;;;18.80;99.90;;;;;;6072112;29;19911;-82
2021/07/31 02:31:32;;;;;;;;;;;18.80;99.90;;;;;;6074553;29;19933;-85
2021/07/31 02:34:32;;;;;;;;;;;18.70;99.90;;;;;;6177147;28;19918;-83
2021/07/31 02:37:33;;;;;;;;;;;18.60;99.90;;;;;;6096225;29;19914;-84
2021/07/31 02:40:33;;;;;;;;;;;18.70;99.90;;;;;;6176734;28;20296;-84
2021/07/31 02:43:34;;;;;;;;;;;18.70;99.90;;;;;;6177140;28;19969;-84
2021/07/31 02:46:35;;;;;;;;;;;18.60;99.90;;;;;;6177263;28;19917;-84
2021/07/31 02:49:36;;;;;;;;;;;19.10;99.90;;;;;;6176069;28;20351;-84
2021/07/31 02:52:36;;;;;;;;;;;18.60;99.90;;;;;;6151218;28;19911;-84
2021/07/31 02:55:37;;;;;;;;;;;18.70;99.90;;;;;;6176624;28;20288;-83
2021/07/31 02:58:37;;;;;;;;;;;18.60;99.90;;;;;;6177043;28;20005;-84
2021/07/31 03:01:38;;;;;;;;;;;18.60;99.90;;;;;;6071985;29;19911;-83
2021/07/31 03:04:38;;;;;;;;;;;18.50;99.90;;;;;;6073092;29;19911;-83
2021/07/31 03:07:39;;;;;;;;;;;18.60;99.90;;;;;;6071531;29;19914;-84
2021/07/31 03:10:39;;;;;;;;;;;18.70;99.90;;;;;;6071761;29;20445;-84
2021/07/31 03:13:39;;;;;;;;;;;18.70;99.90;;;;;;6071453;29;19915;-82
2021/07/31 03:16:40;;;;;;;;;;;18.60;99.90;;;;;;6071376;29;19915;-83
2021/07/31 03:19:40;;;;;;;;;;;18.60;99.90;;;;;;6055992;29;20269;-83
2021/07/31 03:22:41;;;;;;;;;;;18.80;99.90;;;;;;6080278;29;19910;-84
2021/07/31 03:25:42;;;;;;;;;;;18.60;99.90;;;;;;6099190;29;20381;-84
2021/07/31 03:28:42;;;;;;;;;;;18.30;99.90;;;;;;6164287;28;20443;-83
2021/07/31 03:31:43;;;;;;;;;;;18.60;99.90;;;;;;6181442;28;20317;-84
2021/07/31 03:34:43;;;;;;;;;;;18.50;99.90;;;;;;6094441;29;19916;-83
2021/07/31 03:37:44;;;;;;;;;;;18.60;99.90;;;;;;6059709;29;20367;-83
2021/07/31 03:40:44;;;;;;;;;;;18.50;99.90;;;;;;6075137;29;19966;-83
2021/07/31 03:43:45;;;;;;;;;;;18.50;99.90;;;;;;6059395;29;19953;-85
2021/07/31 03:46:45;;;;;;;;;;;18.60;99.90;;;;;;6075086;29;20329;-83
2021/07/31 03:49:46;;;;;;;;;;;18.50;99.90;;;;;;6082851;29;19938;-83
2021/07/31 03:52:46;;;;;;;;;;;18.50;99.90;;;;;;6075369;29;19908;-83
2021/07/31 03:55:47;;;;;;;;;;;18.50;99.90;;;;;;6059357;29;19915;-83
2021/07/31 03:58:48;;;;;;;;;;;18.50;99.90;;;;;;6075193;29;19918;-84
2021/07/31 04:01:48;;;;;;;;;;;18.40;99.90;;;;;;6085361;29;20001;-83
2021/07/31 04:04:49;;;;;;;;;;;18.40;99.90;;;;;;6075293;29;19904;-84
2021/07/31 04:07:49;;;;;;;;;;;18.40;99.90;;;;;;6075772;29;19907;-84
2021/07/31 04:10:50;;;;;;;;;;;16.10;99.90;;;;;;6072891;29;20361;-84
2021/07/31 04:13:50;;;;;;;;;;;18.40;99.90;;;;;;6180110;28;20061;-84
2021/07/31 04:16:51;;;;;;;;;;;18.30;99.90;;;;;;6179713;28;19976;-83
2021/07/31 04:19:51;;;;;;;;;;;18.50;99.90;;;;;;6163989;28;20364;-82
2021/07/31 04:22:52;;;;;;;;;;;18.30;99.90;;;;;;6179593;28;19920;-82
2021/07/31 04:25:52;;;;;;;;;;;17.80;99.90;;;;;;6179876;28;19907;-83
2021/07/31 04:28:53;;;;;;;;;;;18.30;99.90;;;;;;6163148;28;19957;-82
2021/07/31 04:31:53;;;;;;;;;;;18.30;99.90;;;;;;6096641;29;19907;-83
2021/07/31 04:34:54;;;;;;;;;;;18.40;99.90;;;;;;6097485;29;19934;-83
2021/07/31 04:37:54;;;;;;;;;;;18.40;99.90;;;;;;6179019;28;19950;-83
2021/07/31 04:40:55;;;;;;;;;;;18.40;99.90;;;;;;6162915;28;19993;-82
2021/07/31 04:43:55;;;;;;;;;;;18.40;99.90;;;;;;6163197;28;20045;-81
2021/07/31 04:46:56;;;;;;;;;;;18.60;99.90;;;;;;6179329;28;19911;-83
2021/07/31 04:49:56;;;;;;;;;;;18.50;99.90;;;;;;6179022;28;19906;-82
2021/07/31 04:52:57;;;;;;;;;;;18.70;99.90;;;;;;6169585;28;19915;-84
2021/07/31 04:55:57;;;;;;;;;;;18.80;99.90;;;;;;6075666;29;20030;-83
2021/07/31 04:58:58;;;;;;;;;;;19.70;99.90;;;;;;6162431;28;19922;-85
2021/07/31 05:01:58;;;;;;;;;;;19.00;99.90;;;;;;6169663;28;19911;-83
2021/07/31 05:04:59;;;;;;;;;;;19.40;99.90;;;;;;6073679;29;19944;-84
2021/07/31 05:07:59;;;;;;;;;;;19.90;99.90;;;;;;6073527;29;19942;-83
2021/07/31 05:11:04;;;;;;;;;;;20.70;99.90;;;;;;6087298;29;20368;-84
2021/07/31 05:14:04;;;;;;;;;;;20.90;99.90;;;;;;6162247;28;19954;-83
2021/07/31 05:17:05;;;;;;;;;;;21.10;99.90;;;;;;6162200;28;20369;-83
2021/07/31 05:20:05;;;;;;;;;;;21.10;99.90;;;;;;6162330;28;20330;-84
2021/07/31 05:23:06;;;;;;;;;;;21.00;99.90;;;;;;6161861;28;19998;-83
2021/07/31 05:26:10;;;;;;;;;;;21.60;99.90;;;;;;6178308;28;19911;-83
2021/07/31 05:29:10;;;;;;;;;;;21.80;99.90;;;;;;6161678;28;19911;-83
2021/07/31 05:32:10;;;;;;;;;;;21.70;99.90;;;;;;6178104;28;19907;-84
2021/07/31 05:35:11;;;;;;;;;;;21.60;99.90;;;;;;6144103;28;19924;-85
2021/07/31 05:38:11;;;;;;;;;;;21.50;99.90;;;;;;6178315;28;19910;-84
2021/07/31 05:41:13;;;;;;;;;;;21.40;99.90;;;;;;6158241;28;19919;-85
2021/07/31 05:44:14;;;;;;;;;;;21.30;99.90;;;;;;6056560;29;19915;-85
2021/07/31 05:47:14;;;;;;;;;;;21.20;99.90;;;;;;6088579;29;19911;-85
2021/07/31 05:50:15;;;;;;;;;;;20.90;99.90;;;;;;6093337;29;19957;-85
2021/07/31 05:53:15;;;;;;;;;;;20.80;99.90;;;;;;6161604;28;19919;-84
2021/07/31 05:56:16;;;;;;;;;;;20.80;99.90;;;;;;6172533;28;20350;-85
2021/07/31 05:59:16;;;;;;;;;;;20.50;99.90;;;;;;6056824;29;19903;-84
2021/07/31 06:02:17;;;;;;;;;;;20.50;99.90;;;;;;6073874;29;19918;-84
2021/07/31 06:05:17;;;;;;;;;;;20.70;99.90;;;;;;6072302;29;19903;-84
2021/07/31 06:08:18;;;;;;;;;;;21.20;99.90;;;;;;6063384;29;19930;-85
2021/07/31 06:11:18;;;;;;;;;;;22.10;99.90;;;;;;6147860;28;20019;-84
2021/07/31 06:14:19;;;;;;;;;;;22.90;98.70;;;;;;6072367;29;19923;-84
2021/07/31 06:17:19;;;;;;;;;;;23.30;98.10;;;;;;6072680;29;19911;-86
2021/07/31 06:20:20;;;;;;;;;;;23.10;98.10;;;;;;6072709;29;19926;-83
2021/07/31 06:23:20;;;;;;;;;;;23.10;97.70;;;;;;6072473;29;19950;-84
2021/07/31 06:26:21;;;;;;;;;;;23.00;97.10;;;;;;6078539;29;19918;-83
2021/07/31 06:29:21;;;;;;;;;;;23.10;96.90;;;;;;6072708;29;20372;-82
2021/07/31 06:32:22;;;;;;;;;;;23.50;96.00;;;;;;6060225;29;19911;-81
2021/07/31 06:35:22;;;;;;;;;;;23.60;95.60;;;;;;6177540;28;19919;-83
2021/07/31 06:38:23;;;;;;;;;;;23.50;95.60;;;;;;6144727;28;19914;-84
2021/07/31 06:41:23;;;;;;;;;;;23.40;95.00;;;;;;6074545;29;19915;-84
2021/07/31 06:44:24;;;;;;;;;;;23.80;96.00;;;;;;6089252;29;19911;-83
2021/07/31 06:47:24;;;;;;;;;;;24.60;95.10;;;;;;6153965;28;19911;-87
2021/07/31 06:50:25;;;;;;;;;;;24.80;93.40;;;;;;6079622;29;19910;-87
2021/07/31 06:53:25;;;;;;;;;;;25.50;92.40;;;;;;6081901;29;19986;-87
2021/07/31 06:56:26;;;;;;;;;;;26.30;91.90;;;;;;6079989;29;19903;-86
2021/07/31 06:59:26;;;;;;;;;;;26.80;91.40;;;;;;6069670;28;19918;-89
2021/07/31 07:02:27;;;;;;;;;;;27.20;90.50;;;;;;6078771;29;19907;-89
2021/07/31 07:05:28;;;;;;;;;;;26.30;84.10;;;;;;6150025;28;20002;-87
2021/07/31 07:08:28;;;;;;;;;;;27.70;80.80;;;;;;6067566;29;19971;-85
2021/07/31 07:11:29;;;;;;;;;;;28.30;80.40;;;;;;6061404;29;19916;-86
2021/07/31 07:14:29;;;;;;;;;;;28.60;76.10;;;;;;6079905;28;20032;-88
2021/07/31 07:17:29;;;;;;;;;;;28.50;72.10;;;;;;6059392;29;19922;-85
2021/07/31 07:20:30;;;;;;;;;;;29.00;70.20;;;;;;6087688;29;19955;-86
2021/07/31 07:23:31;;;;;;;;;;;29.50;69.50;;;;;;6148276;28;19919;-84
2021/07/31 07:26:31;;;;;;;;;;;29.90;67.30;;;;;;6141858;28;19919;-85
2021/07/31 07:29:32;;;;;;;;;;;29.60;65.80;;;;;;6076467;29;19920;-84
2021/07/31 07:32:36;;;;;;;;;;;29.10;67.90;;;;;;6145213;28;19911;-84
2021/07/31 07:35:36;;;;;;;;;;;29.60;64.50;;;;;;6148035;28;19969;-84
2021/07/31 07:38:37;;;;;;;;;;;29.40;66.00;;;;;;6086829;29;19906;-83
2021/07/31 07:41:38;;;;;;;;;;;29.40;67.60;;;;;;6175934;28;19911;-85
2021/07/31 07:44:38;;;;;;;;;;;30.10;70.10;;;;;;6164476;28;19915;-83
2021/07/31 07:47:39;;;;;;;;;;;28.70;68.50;;;;;;6168530;28;19911;-83
2021/07/31 07:50:39;;;;;;;;;;;28.70;71.20;;;;;;6072347;29;19903;-83
2021/07/31 07:53:40;;;;;;;;;;;28.70;70.30;;;;;;6068656;29;19927;-77
2021/07/31 07:56:40;;;;;;;;;;;28.60;70.60;;;;;;6159532;28;19911;-79
2021/07/31 07:59:41;;;;;;;;;;;27.80;70.40;;;;;;6075024;29;20269;-77
2021/07/31 08:02:41;;;;;;;;;;;27.30;72.60;;;;;;6086342;29;19915;-81
2021/07/31 08:05:42;;;;;;;;;;;27.80;73.70;;;;;;6163790;28;19910;-81
2021/07/31 08:08:42;;;;;;;;;;;28.40;69.90;;;;;;6096122;29;20297;-78
2021/07/31 08:11:43;;;;;;;;;;;28.10;66.10;;;;;;6086632;28;19927;-77
2021/07/31 08:14:45;;;;;;;;;;;27.90;66.30;;;;;;6074264;29;20392;-81
2021/07/31 08:17:46;;;;;;;;;;;27.40;69.50;;;;;;6075179;29;20261;-79
2021/07/31 08:20:46;;;;;;;;;;;27.90;70.00;;;;;;6074384;29;19910;-79
2021/07/31 08:23:47;;;;;;;;;;;28.50;70.30;;;;;;6075891;29;19958;-79
2021/07/31 08:26:47;;;;;;;;;;;29.20;68.90;;;;;;6078042;29;20426;-81
2021/07/31 08:29:48;;;;;;;;;;;29.00;67.00;;;;;;6061885;28;19915;-82
2021/07/31 08:32:49;;;;;;;;;;;28.70;63.90;;;;;;6075718;29;19911;-81
2021/07/31 08:39:27;;;;;;;;;;;27.60;65.10;;;;;;6074534;29;19907;-78
2021/07/31 08:42:28;;;;;;;;;;;27.50;69.80;;;;;;6059063;28;19981;-81
2021/07/31 08:45:29;;;;;;;;;;;26.30;71.00;;;;;;6089348;29;19914;-81
2021/07/31 08:48:29;;;;;;;;;;;26.20;72.00;;;;;;6142452;28;20486;-82
2021/07/31 08:51:30;;;;;;;;;;;26.40;72.30;;;;;;6073286;29;19912;-83
2021/07/31 08:54:30;;;;;;;;;;;26.70;70.00;;;;;;6074048;29;19911;-84
2021/07/31 08:57:31;;;;;;;;;;;27.00;66.90;;;;;;6058633;29;20350;-79
2021/07/31 09:00:31;;;;;;;;;;;26.90;67.10;;;;;;6072187;29;19903;-82
2021/07/31 09:03:48;;;;;;;;;;;26.50;66.30;;;;;;6093932;29;20262;-80
2021/07/31 09:06:49;;;;;;;;;;;26.60;64.50;;;;;;6081843;28;19918;-82
2021/07/31 09:09:49;;;;;;;;;;;27.00;66.40;;;;;;6059463;28;19926;-81
2021/07/31 09:12:54;;;;;;;;;;;27.20;65.90;;;;;;6073322;29;19915;-83
2021/07/31 09:15:54;;;;;;;;;;;27.10;64.70;;;;;;6087450;28;19907;-81
2021/07/31 09:19:01;;;;;;;;;;;26.70;68.00;;;;;;6072441;29;19911;-82
2021/07/31 09:22:03;;;;;;;;;;;26.90;67.30;;;;;;6073773;28;20349;-79
2021/07/31 09:25:10;;;;;;;;;;;26.30;67.50;;;;;;6073067;29;19935;-80
2021/07/31 09:28:17;;;;;;;;;;;26.70;65.80;;;;;;6072298;29;19929;-80
2021/07/31 09:31:18;;;;;;;;;;;27.20;64.30;;;;;;6071679;29;19903;-81
2021/07/31 09:34:30;;;;;;;;;;;28.20;65.20;;;;;;6154691;28;20354;-80
2021/07/31 09:37:31;;;;;;;;;;;28.80;61.60;;;;;;6087709;28;20296;-80
2021/07/31 09:40:31;;;;;;;;;;;29.40;65.00;;;;;;6091788;28;19911;-79
2021/07/31 09:43:32;;;;;;;;;;;29.50;62.40;;;;;;6074345;28;20277;-80
2021/07/31 09:46:35;;;;;;;;;;;30.20;62.00;;;;;;6167099;28;21045;-82
2021/07/31 09:49:36;;;;;;;;;;;30.00;55.80;;;;;;6096217;29;19926;-81
2021/07/31 09:52:36;;;;;;;;;;;29.20;59.80;;;;;;6161077;28;19910;-78
2021/07/31 09:55:37;;;;;;;;;;;28.70;61.30;;;;;;6177680;28;19926;-79
2021/07/31 09:58:38;;;;;;;;;;;28.60;59.80;;;;;;6154517;28;20404;-79
2021/07/31 10:01:48;;;;;;;;;;;28.10;60.90;;;;;;6077864;28;19922;-84
2021/07/31 10:04:49;;;;;;;;;;;28.10;54.30;;;;;;6072756;28;19915;-79
2021/07/31 10:07:49;;;;;;;;;;;28.10;60.60;;;;;;6077863;28;19915;-82
2021/07/31 10:10:50;;;;;;;;;;;28.40;60.60;;;;;;6138373;28;20369;-79
2021/07/31 10:13:50;;;;;;;;;;;28.40;62.80;;;;;;6071142;29;19907;-81
2021/07/31 10:16:51;;;;;;;;;;;28.70;62.70;;;;;;6071215;29;19930;-84
2021/07/31 10:19:52;;;;;;;;;;;28.60;62.10;;;;;;6058106;29;19950;-78
2021/07/31 10:22:53;;;;;;;;;;;28.50;60.30;;;;;;6074493;29;20503;-80
2021/07/31 10:26:06;;;;;;;;;;;28.30;61.20;;;;;;6075153;29;19910;-80
2021/07/31 10:29:25;;;;;;;;;;;28.10;58.80;;;;;;6073751;29;19962;-82
2021/07/31 10:32:29;;;;;;;;;;;28.00;58.60;;;;;;6088384;29;20419;-84
2021/07/31 10:35:34;;;;;;;;;;;27.60;61.50;;;;;;6080164;29;19946;-82
2021/07/31 10:38:35;;;;;;;;;;;27.30;61.30;;;;;;6079023;29;19918;-82
2021/07/31 10:41:55;;;;;;;;;;;27.90;63.40;;;;;;6073851;29;20374;-84
2021/07/31 10:45:14;;;;;;;;;;;28.60;59.40;;;;;;6088296;29;19903;-86
2021/07/31 10:48:22;;;;;;;;;;;29.00;59.10;;;;;;6079688;29;19958;-88
2021/07/31 10:51:37;;;;;;;;;;;29.50;60.30;;;;;;6068305;29;19915;-87
2021/07/31 10:55:07;;;;;;;;;;;30.00;58.20;;;;;;6166060;28;19911;-88
2021/07/31 10:58:18;;;;;;;;;;;29.50;58.30;;;;;;6156071;28;20257;-89
2021/07/31 11:01:19;;;;;;;;;;;31.30;62.60;;;;;;6125252;28;20379;-84
2021/07/31 11:04:38;;;;;;;;;;;29.20;63.20;;;;;;6141702;28;19911;-87
2021/07/31 11:07:57;;;;;;;;;;;29.60;60.70;;;;;;6162638;28;19941;-87
2021/07/31 11:10:58;;;;;;;;;;;29.00;61.30;;;;;;6149801;28;20710;-85
2021/07/31 11:13:58;;;;;;;;;;;28.10;63.60;;;;;;6147899;28;19910;-86
2021/07/31 11:17:15;;;;;;;;;;;27.80;66.60;;;;;;6121091;28;19911;-84
2021/07/31 11:20:25;;;;;;;;;;;27.60;62.50;;;;;;6145780;28;19972;-92
2021/07/31 11:23:26;;;;;;;;;;;27.30;59.30;;;;;;6125145;28;19934;-90
2021/07/31 11:26:32;;;;;;;;;;;27.00;65.40;;;;;;6122152;28;20014;-86
2021/07/31 11:29:33;;;;;;;;;;;26.80;62.90;;;;;;6147146;28;19921;-85
2021/07/31 11:32:38;;;;;;;;;;;26.70;67.00;;;;;;6128985;28;20005;-86
2021/07/31 11:35:39;;;;;;;;;;;26.60;67.70;;;;;;6072273;29;19922;-82
2021/07/31 11:38:40;;;;;;;;;;;26.50;66.80;;;;;;6146595;28;19950;-82
2021/07/31 11:41:41;;;;;;;;;;;26.50;66.00;;;;;;6073262;28;19915;-82
2021/07/31 11:44:41;;;;;;;;;;;26.10;66.90;;;;;;6073609;28;19911;-80
2021/07/31 11:47:42;;;;;;;;;;;25.90;68.80;;;;;;6075350;29;19911;-80
2021/07/31 11:51:02;;;;;;;;;;;26.00;69.20;;;;;;6076263;29;20476;-81
2021/07/31 11:54:03;;;;;;;;;;;26.10;67.20;;;;;;6090255;28;19934;-82
2021/07/31 11:57:03;;;;;;;;;;;26.20;69.20;;;;;;6073838;28;19919;-81
2021/07/31 12:00:04;;;;;;;;;;;26.50;69.20;;;;;;6075708;29;19942;-81
2021/07/31 12:03:24;;;;;;;;;;;26.60;69.60;;;;;;6074416;29;19930;-81
2021/07/31 12:06:31;;;;;;;;;;;26.60;70.00;;;;;;6077124;29;20030;-76
2021/07/31 12:09:33;;;;;;;;;;;26.70;64.90;;;;;;6076047;29;19949;-87
2021/07/31 12:12:36;;;;;;;;;;;26.60;68.50;;;;;;6059007;29;19911;-85
2021/07/31 12:15:40;;;;;;;;;;;26.80;69.40;;;;;;6076423;28;19919;-87
2021/07/31 12:18:51;;;;;;;;;;;26.50;66.70;;;;;;6078335;29;19915;-80
2021/07/31 12:22:04;;;;;;;;;;;26.40;63.90;;;;;;6074930;28;19907;-80
2021/07/31 12:25:05;;;;;;;;;;;26.40;68.20;;;;;;6091180;29;19958;-83
2021/07/31 12:28:15;;;;;;;;;;;26.20;65.50;;;;;;6073548;28;19907;-81
2021/07/31 12:31:25;;;;;;;;;;;26.00;67.60;;;;;;6136421;28;19918;-81
2021/07/31 12:34:30;;;;;;;;;;;26.20;64.70;;;;;;6075174;28;19919;-80
2021/07/31 12:37:36;;;;;;;;;;;26.00;65.30;;;;;;6090183;29;19962;-82
2021/07/31 12:40:37;;;;;;;;;;;26.10;68.60;;;;;;6179365;28;20273;-83
2021/07/31 12:43:37;;;;;;;;;;;26.20;68.10;;;;;;6150584;28;19915;-85
2021/07/31 12:46:38;;;;;;;;;;;25.80;67.90;;;;;;6091394;28;19915;-81
2021/07/31 12:49:38;;;;;;;;;;;26.00;68.20;;;;;;6073841;28;20227;-81
2021/07/31 12:52:39;;;;;;;;;;;26.10;65.90;;;;;;6058196;29;19998;-80
2021/07/31 12:55:40;;;;;;;;;;;26.40;72.00;;;;;;6073914;29;19915;-82
2021/07/31 12:58:40;;;;;;;;;;;26.50;69.40;;;;;;6074250;29;19919;-85
2021/07/31 13:01:40;;;;;;;;;;;26.60;67.40;;;;;;6069882;29;20665;-85
2021/07/31 13:04:41;;;;;;;;;;;26.80;67.10;;;;;;6146825;28;19962;-84
2021/07/31 13:07:42;;;;;;;;;;;26.40;66.50;;;;;;6077972;29;19961;-88
2021/07/31 13:10:43;;;;;;;;;;;26.50;68.50;;;;;;6150748;28;19930;-83
2021/07/31 13:13:43;;;;;;;;;;;27.00;64.30;;;;;;6072835;28;20304;-78
2021/07/31 13:16:44;;;;;;;;;;;26.80;65.80;;;;;;6145725;28;19954;-79
2021/07/31 13:19:44;;;;;;;;;;;27.10;64.50;;;;;;6074786;29;20431;-80
2021/07/31 13:22:45;;;;;;;;;;;27.40;65.90;;;;;;6071599;28;19907;-79
2021/07/31 13:25:45;;;;;;;;;;;27.30;65.20;;;;;;6074113;28;20611;-83
2021/07/31 13:28:46;;;;;;;;;;;27.50;64.60;;;;;;6083600;29;19919;-86
2021/07/31 13:31:46;;;;;;;;;;;27.50;64.40;;;;;;6067686;29;19977;-80
2021/07/31 13:34:47;;;;;;;;;;;27.20;64.90;;;;;;6138675;28;19992;-78
2021/07/31 13:37:49;;;;;;;;;;;27.30;65.90;;;;;;6075309;28;19915;-77
2021/07/31 13:40:50;;;;;;;;;;;26.90;66.20;;;;;;6075443;28;19918;-80
2021/07/31 13:43:52;;;;;;;;;;;27.40;64.80;;;;;;6056906;29;19903;-76
2021/07/31 13:46:53;;;;;;;;;;;27.20;64.00;;;;;;6072302;28;19911;-78
2021/07/31 13:49:53;;;;;;;;;;;27.10;63.80;;;;;;6059080;29;19915;-78
2021/07/31 13:52:54;;;;;;;;;;;26.90;62.20;;;;;;6077655;29;19954;-78
2021/07/31 13:55:54;;;;;;;;;;;26.80;64.60;;;;;;6087853;29;20403;-78
2021/07/31 13:58:55;;;;;;;;;;;26.60;65.70;;;;;;6176855;28;19911;-81
2021/07/31 14:01:55;;;;;;;;;;;26.50;64.70;;;;;;6075752;29;20357;-79
2021/07/31 14:04:56;;;;;;;;;;;26.40;63.20;;;;;;6057230;29;20014;-79
2021/07/31 14:07:56;;;;;;;;;;;26.30;62.30;;;;;;6073600;29;20393;-79
2021/07/31 14:10:57;;;;;;;;;;;26.10;63.40;;;;;;6073458;29;19903;-80
2021/07/31 14:13:58;;;;;;;;;;;25.40;66.30;;;;;;6078702;29;19915;-80
2021/07/31 14:16:58;;;;;;;;;;;26.10;66.30;;;;;;6071783;29;20345;-81
2021/07/31 14:19:58;;;;;;;;;;;26.20;67.90;;;;;;6074571;29;19911;-80
2021/07/31 14:22:59;;;;;;;;;;;26.50;67.80;;;;;;6073234;29;19911;-79
2021/07/31 14:25:59;;;;;;;;;;;26.90;66.30;;;;;;6056416;29;20342;-79
2021/07/31 14:29:00;;;;;;;;;;;27.30;67.10;;;;;;6071953;29;19917;-79
2021/07/31 14:32:02;;;;;;;;;;;27.40;65.30;;;;;;6072740;29;20342;-81
2021/07/31 14:35:03;;;;;;;;;;;27.00;61.80;;;;;;6071725;29;19923;-81
2021/07/31 14:38:04;;;;;;;;;;;26.90;66.20;;;;;;6073526;29;19926;-83
2021/07/31 14:41:05;;;;;;;;;;;26.70;64.20;;;;;;6073335;29;20416;-82
2021/07/31 14:44:05;;;;;;;;;;;26.70;64.30;;;;;;6075926;28;19922;-81
2021/07/31 14:47:12;;;;;;;;;;;26.80;66.60;;;;;;6056404;29;19930;-79
2021/07/31 14:50:12;;;;;;;;;;;26.90;67.30;;;;;;6076310;29;19907;-82
2021/07/31 14:53:13;;;;;;;;;;;27.00;67.80;;;;;;6153814;28;20416;-82
2021/07/31 14:56:17;;;;;;;;;;;26.90;65.30;;;;;;6071953;29;19912;-80
2021/07/31 14:59:18;;;;;;;;;;;26.80;64.20;;;;;;6076373;29;20059;-80
2021/07/31 15:02:18;;;;;;;;;;;26.80;65.00;;;;;;6075184;29;19908;-80
2021/07/31 15:05:18;;;;;;;;;;;26.80;63.80;;;;;;6073455;29;19965;-81
2021/07/31 15:08:19;;;;;;;;;;;26.90;64.60;;;;;;6072901;29;20356;-82
2021/07/31 15:11:19;;;;;;;;;;;26.90;64.40;;;;;;6070843;29;19915;-80
2021/07/31 15:14:20;;;;;;;;;;;26.50;63.10;;;;;;6072060;29;19907;-83
2021/07/31 15:17:21;;;;;;;;;;;26.40;63.10;;;;;;6071629;29;19919;-81
2021/07/31 15:20:21;;;;;;;;;;;26.20;62.10;;;;;;6157787;28;20372;-80
2021/07/31 15:23:22;;;;;;;;;;;26.20;61.00;;;;;;6076015;29;19912;-81
2021/07/31 15:26:22;;;;;;;;;;;25.90;62.40;;;;;;6076998;29;19994;-80
2021/07/31 15:29:23;;;;;;;;;;;25.80;67.00;;;;;;6157235;28;20520;-80
2021/07/31 15:32:23;;;;;;;;;;;25.80;68.00;;;;;;6076342;29;19943;-81
2021/07/31 15:35:24;;;;;;;;;;;25.90;68.30;;;;;;6075846;29;19927;-82
2021/07/31 15:38:25;;;;;;;;;;;26.10;65.60;;;;;;6079535;29;19958;-81
2021/07/31 15:41:25;;;;;;;;;;;25.80;65.00;;;;;;6077226;29;20006;-80
2021/07/31 15:44:26;;;;;;;;;;;25.90;66.10;;;;;;6077683;29;19918;-83
2021/07/31 15:47:26;;;;;;;;;;;25.80;66.70;;;;;;6079123;29;19911;-78
2021/07/31 15:50:27;;;;;;;;;;;25.70;67.50;;;;;;6058741;29;19915;-81
2021/07/31 15:53:28;;;;;;;;;;;25.90;68.80;;;;;;6077342;29;20285;-81
2021/07/31 15:56:28;;;;;;;;;;;25.70;68.70;;;;;;6080499;28;19926;-82
2021/07/31 16:54:31;;;;;;;8.70;3.20;;;24.50;87.00;;;;;;6361853;27;20422;-82
2021/07/31 16:57:32;;;;;;;7.40;3.53;;;;;;;;;;6321641;28;20416;-81
2021/07/31 17:00:32;;;;;;;4.30;3.47;;;24.30;94.90;;;;;;6322325;28;20157;-86
2021/07/31 17:03:33;;;;;;;4.53;2.63;;;24.40;85.20;;;;;;6321982;28;20032;-83
2021/07/31 17:06:34;;;;;;;5.30;2.70;;;24.30;94.90;;;;;;6322014;28;20419;-83
2021/07/31 17:09:34;;;;;;;5.17;2.80;;;24.00;94.50;;;;;;6321788;28;20450;-84
2021/07/31 17:12:35;;;;;;;7.03;3.23;;;24.10;94.90;;;;;;6321061;28;20077;-87
2021/07/31 17:15:36;;;;;;;7.10;3.60;;;;;;;;;;6338179;28;20114;-87
2021/07/31 17:18:38;;;;;;;9.60;3.20;;;;;;;;;;6321481;28;20086;-85
2021/07/31 17:21:38;;;;;;;6.37;3.87;;;23.70;82.60;;;;;;6321973;28;20019;-82
2021/07/31 17:24:39;;;;;;;8.90;3.23;;;23.70;86.80;;;;;;6320963;28;20023;-83
2021/07/31 17:27:39;;;;;;;5.07;3.57;;;23.90;73.00;;;;;;6325802;28;20027;-85
2021/07/31 17:30:40;;;;;;;5.97;3.30;;;23.90;73.60;;;;;;6321139;28;20031;-84
2021/07/31 17:33:40;;;;;;;6.50;3.53;;;23.80;73.10;;;;;;6303216;28;20040;-83
2021/07/31 17:36:41;;;;;;;25.50;14.33;;;23.90;73.60;;;;;;6303155;28;20047;-82
2021/07/31 17:39:48;;;;;;;9.73;4.03;;;23.80;75.50;;;;;;6338575;28;20034;-87
2021/07/31 17:42:49;;;;;;;4.65;3.10;;;;;;;;;;6303098;28;20035;-87
2021/07/31 17:45:49;;;;;;;19.42;9.82;;;23.70;74.10;;;;;;6315326;28;20024;-82
2021/07/31 17:48:50;;;;;;;8.03;4.20;;;23.60;76.40;;;;;;6338096;28;20745;-82
2021/07/31 17:51:50;;;;;;;8.23;3.53;;;23.50;75.80;;;;;;6320593;28;20051;-84
2021/07/31 17:54:51;;;;;;;7.63;3.47;;;23.40;77.40;;;;;;6302641;28;20118;-81
2021/07/31 17:57:52;;;;;;;8.60;5.13;;;23.40;77.30;;;;;;6302316;28;20028;-82
2021/07/31 18:00:52;;;;;;;9.43;4.23;;;23.30;79.80;;;;;;6319552;28;20034;-80
2021/07/31 18:03:53;;;;;;;10.43;4.20;;;23.30;81.40;;;;;;6313629;28;20073;-83
2021/07/31 18:06:53;;;;;;;8.33;4.67;;;23.30;82.50;;;;;;6319822;28;20100;-82
2021/07/31 18:09:54;;;;;;;6.43;3.57;;;23.20;82.50;;;;;;6285883;28;20027;-83
2021/07/31 18:12:54;;;;;;;8.37;3.50;;;23.10;82.80;;;;;;6303331;28;20043;-82
2021/07/31 18:15:55;;;;;;;5.37;3.03;;;23.00;82.70;;;;;;6303136;28;20049;-81
2021/07/31 18:18:56;;;;;;;5.37;3.27;;;22.80;84.40;;;;;;6302604;28;20034;-81
2021/07/31 18:21:56;;;;;;;8.47;3.40;;;22.70;85.00;;;;;;6320080;28;20458;-80
2021/07/31 18:24:57;;;;;;;7.63;3.27;;;22.60;84.20;;;;;;6319861;28;20020;-80